Time;durP1;ratioP1;P1;durP2;ratioP2;P2;SDS_P1;SDS_P2;PMS_P1;PMS_P2;Temp;Humidity;BMP_temperature;BMP_pressure;BME280_temperature;BME280_humidity;BME280_pressure;Samples;Min_cycle;Max_cycle;Signal;HPM_P1;HPM_P2
2023/04/07 00:11:57;;;;;;;14.63;8.77;;;;;;;4.64;51.42;100361.47;30746223;28;97439;-66
2023/04/07 00:26:57;;;;;;;17.80;8.18;;;;;;;4.52;52.89;100352.78;30742186;28;99632;-63
2023/04/07 00:41:58;;;;;;;12.80;8.27;;;;;;;4.40;54.23;100338.81;30743443;28;100223;-67
2023/04/07 00:56:58;;;;;;;15.02;8.25;;;;;;;4.30;54.79;100323.88;30741253;28;98192;-67
2023/04/07 01:12:06;;;;;;;14.88;8.48;;;;;;;4.19;55.66;100312.38;30740597;28;96660;-64
2023/04/07 01:27:20;;;;;;;14.70;8.63;;;;;;;4.14;56.45;100308.47;30739091;28;97428;-63
2023/04/07 01:42:21;;;;;;;13.40;9.07;;;;;;;4.07;57.19;100297.56;30738175;28;96691;-63
2023/04/07 01:57:21;;;;;;;15.15;9.52;;;;;;;4.00;58.44;100291.13;30736109;28;96696;-63
2023/04/07 02:12:25;;;;;;;16.15;9.20;;;;;;;3.87;58.92;100281.59;30735157;28;97155;-63
2023/04/07 02:27:25;;;;;;;15.93;9.82;;;;;;;3.75;60.11;100271.22;30733511;28;97307;-64
2023/04/07 02:42:25;;;;;;;15.85;10.80;;;;;;;3.62;60.65;100269.53;30661650;28;102011;-65
2023/04/07 02:57:26;;;;;;;14.77;10.18;;;;;;;3.49;61.60;100253.91;30620438;28;97381;-67
2023/04/07 03:12:26;;;;;;;10.40;7.72;;;;;;;3.45;62.28;100257.75;30629190;28;108972;-65
2023/04/07 03:27:26;;;;;;;10.38;7.80;;;;;;;3.39;62.73;100266.97;30627651;28;113649;-65
2023/04/07 03:42:27;;;;;;;14.45;9.32;;;;;;;3.43;63.20;100258.81;30626681;28;97046;-64
2023/04/07 03:57:27;;;;;;;16.73;10.38;;;;;;;3.41;63.99;100252.84;30624039;28;100556;-65
2023/04/07 04:12:28;;;;;;;17.90;11.02;;;;;;;3.38;64.28;100254.75;30622908;28;96804;-65
2023/04/07 04:27:28;;;;;;;16.75;10.88;;;;;;;3.39;64.91;100243.28;30668686;28;96832;-63
2023/04/07 04:42:30;;;;;;;15.73;10.75;;;;;;;3.35;65.55;100247.09;30741051;28;96854;-64
2023/04/07 04:57:30;;;;;;;13.82;8.57;;;;;;;3.31;65.79;100256.22;30737949;28;96655;-64
2023/04/07 05:12:31;;;;;;;10.57;6.90;;;;;;;3.33;65.54;100256.91;30735265;28;99445;-67
2023/04/07 05:27:31;;;;;;;11.02;7.78;;;;;;;3.37;65.79;100260.97;30734987;28;96693;-64
2023/04/07 05:42:31;;;;;;;11.88;8.00;;;;;;;3.37;65.54;100265.41;30713497;28;98178;-64
2023/04/07 05:57:32;;;;;;;9.93;6.57;;;;;;;3.45;65.63;100270.09;30696285;28;99678;-65
2023/04/07 06:12:33;;;;;;;13.82;8.30;;;;;;;3.50;65.71;100268.75;30659983;28;97616;-65
2023/04/07 06:27:35;;;;;;;14.90;8.20;;;;;;;3.64;66.37;100259.75;30692520;28;103996;-65
2023/04/07 06:42:35;;;;;;;13.00;7.93;;;;;;;3.75;66.27;100264.13;30728104;28;97406;-64
2023/04/07 06:57:35;;;;;;;10.82;7.72;;;;;;;3.85;66.03;100256.31;30664070;28;96739;-66
2023/04/07 07:12:36;;;;;;;11.07;7.63;;;;;;;3.98;66.41;100243.81;30711450;28;96953;-66
2023/04/07 07:27:36;;;;;;;12.25;8.00;;;;;;;4.13;66.93;100254.91;30663664;28;97090;-60
2023/04/07 07:42:37;;;;;;;12.20;7.13;;;;;;;4.23;66.50;100270.78;30677028;28;108026;-65
2023/04/07 07:57:37;;;;;;;12.52;6.90;;;;;;;4.22;66.80;100280.50;30624189;28;97183;-66
2023/04/07 08:12:38;;;;;;;11.98;7.03;;;;;;;4.26;66.45;100286.34;30678802;28;96949;-64
2023/04/07 08:27:38;;;;;;;11.13;6.55;;;;;;;4.51;66.40;100269.34;30639132;28;96799;-66
2023/04/07 08:42:46;;;;;;;10.40;6.00;;;;;;;5.13;66.16;100266.72;30679352;28;108830;-67
2023/04/07 08:57:47;;;;;;;11.13;6.85;;;;;;;5.71;65.46;100265.19;30659620;28;97349;-67
2023/04/07 09:12:47;;;;;;;10.50;6.22;;;;;;;6.06;64.79;100272.63;30674254;28;97298;-70
2023/04/07 09:28:02;;;;;;;11.68;5.68;;;;;;;6.28;64.01;100269.88;30679335;28;98824;-63
2023/04/07 09:43:04;;;;;;;13.30;5.47;;;;;;;6.32;62.83;100253.56;30657886;28;97002;-69
2023/04/07 09:58:06;;;;;;;11.82;6.38;;;;;;;6.10;63.13;100262.63;30663298;28;97259;-69
2023/04/07 10:13:06;;;;;;;9.95;6.20;;;;;;;5.97;63.25;100257.56;30667588;28;96825;-69
2023/04/07 10:28:08;;;;;;;9.80;5.97;;;;;;;5.97;63.43;100254.94;30679576;28;97364;-67
2023/04/07 10:43:10;;;;;;;8.13;5.93;;;;;;;6.10;63.44;100250.22;30664293;28;98232;-68
2023/04/07 10:58:33;;;;;;;10.90;6.35;;;;;;;5.94;63.81;100255.22;30706144;28;96986;-71
2023/04/07 11:13:42;;;;;;;8.57;5.57;;;;;;;5.93;63.97;100266.75;30681103;28;97093;-68
2023/04/07 11:28:48;;;;;;;9.57;5.93;;;;;;;5.99;64.59;100260.13;30691582;28;97337;-64
2023/04/07 11:43:49;;;;;;;9.80;5.60;;;;;;;5.82;64.75;100257.13;30674590;28;97282;-66
2023/04/07 11:58:52;;;;;;;13.02;7.47;;;;;;;5.78;65.23;100241.69;30677835;28;97624;-67
2023/04/07 12:13:53;;;;;;;13.20;7.57;;;;;;;5.95;65.46;100241.03;30633210;28;97458;-72
2023/04/07 12:28:54;;;;;;;11.00;7.40;;;;;;;6.05;65.23;100233.94;30619063;28;97762;-64
2023/04/07 12:43:54;;;;;;;10.60;6.30;;;;;;;6.16;65.19;100230.31;30658233;28;97245;-67
2023/04/07 12:58:55;;;;;;;11.43;5.70;;;;;;;6.17;65.66;100225.88;30671054;28;97289;-66
2023/04/07 13:13:55;;;;;;;15.65;7.97;;;;;;;6.19;65.42;100223.91;30670593;28;98246;-66
2023/04/07 13:28:55;;;;;;;8.27;5.15;;;;;;;6.05;65.58;100214.59;30702117;28;97510;-65
2023/04/07 13:43:57;;;;;;;11.48;6.47;;;;;;;6.01;65.61;100224.63;30636348;28;97255;-62
2023/04/07 13:58:57;;;;;;;9.23;5.63;;;;;;;5.92;65.79;100209.56;30699686;28;98528;-66
2023/04/07 14:13:57;;;;;;;10.55;6.50;;;;;;;5.77;65.95;100227.66;30708929;28;112061;-62
2023/04/07 14:28:58;;;;;;;13.05;7.47;;;;;;;5.76;66.78;100223.34;30710024;28;107250;-62
2023/04/07 14:43:58;;;;;;;11.48;7.32;;;;;;;5.74;67.26;100225.28;30728837;28;114024;-64
2023/04/07 14:58:58;;;;;;;12.00;7.68;;;;;;;5.71;67.46;100233.50;30747976;28;100701;-64
2023/04/07 15:13:59;;;;;;;10.57;6.88;;;;;;;5.63;68.24;100238.63;30747525;28;106493;-64
2023/04/07 15:29:00;;;;;;;9.98;5.97;;;;;;;5.65;68.49;100232.22;30747478;28;96725;-65
2023/04/07 15:44:01;;;;;;;10.70;7.22;;;;;;;5.64;69.03;100241.13;30745723;28;97475;-62
2023/04/07 15:59:02;;;;;;;11.57;6.47;;;;;;;5.48;69.07;100239.03;30742058;28;96719;-63
2023/04/07 16:14:02;;;;;;;10.77;6.63;;;;;;;5.33;69.85;100222.72;30739317;28;96686;-63
2023/04/07 16:29:02;;;;;;;15.25;10.07;;;;;;;5.15;70.35;100217.22;30737083;28;112431;-64
2023/04/07 16:44:03;;;;;;;12.50;6.97;;;;;;;5.05;71.19;100225.13;30737767;28;102993;-62
2023/04/07 16:59:03;;;;;;;13.02;6.32;;;;;;;4.90;71.51;100226.47;30735233;28;96780;-64
2023/04/07 17:14:03;;;;;;;11.18;7.50;;;;;;;4.87;72.11;100245.22;30734087;28;96817;-63
2023/04/07 17:29:04;;;;;;;10.40;6.95;;;;;;;4.78;72.42;100254.75;30734374;28;96610;-63
2023/04/07 17:44:04;;;;;;;12.23;6.72;;;;;;;4.72;72.98;100266.66;30731755;28;113021;-63
2023/04/07 17:59:05;;;;;;;9.88;5.43;;;;;;;4.73;73.51;100268.34;30730963;28;96798;-63
2023/04/07 18:14:05;;;;;;;10.10;6.07;;;;;;;4.70;73.91;100279.16;30728762;28;96698;-64
2023/04/07 18:29:06;;;;;;;9.30;6.32;;;;;;;4.73;74.27;100291.28;30726689;28;111633;-63
2023/04/07 18:44:06;;;;;;;11.30;7.38;;;;;;;4.69;74.33;100295.13;30729495;28;96896;-65
2023/04/07 18:59:07;;;;;;;12.95;6.78;;;;;;;4.69;74.68;100293.31;30726905;28;110564;-66
2023/04/07 19:14:07;;;;;;;10.05;6.28;;;;;;;4.66;74.89;100292.72;30725115;28;96682;-65
2023/04/07 19:29:09;;;;;;;12.70;6.95;;;;;;;4.65;75.45;100296.38;30725278;28;97845;-65
2023/04/07 19:44:10;;;;;;;10.52;6.90;;;;;;;4.64;75.81;100295.50;30742424;28;97091;-65
2023/04/07 19:59:10;;;;;;;12.05;7.70;;;;;;;4.65;76.01;100289.28;30742864;28;96677;-64
2023/04/07 20:14:11;;;;;;;12.10;8.63;;;;;;;4.65;76.44;100286.63;30742435;28;104531;-65
2023/04/07 20:29:11;;;;;;;14.13;8.52;;;;;;;4.62;76.35;100305.38;30738803;28;97330;-64
2023/04/07 20:44:11;;;;;;;14.70;8.43;;;;;;;4.63;76.68;100293.81;30739525;28;96776;-63
2023/04/07 20:59:12;;;;;;;15.85;8.57;;;;;;;4.62;76.79;100289.53;30739694;28;99721;-63
2023/04/07 21:14:12;;;;;;;13.00;7.90;;;;;;;4.63;77.22;100296.47;30737590;28;97322;-63
2023/04/07 21:29:12;;;;;;;12.05;7.70;;;;;;;4.67;77.09;100303.16;30735884;28;96774;-64
2023/04/07 21:44:18;;;;;;;12.40;7.70;;;;;;;4.69;77.24;100293.31;30735546;28;105728;-64
2023/04/07 21:59:18;;;;;;;11.15;7.25;;;;;;;4.74;77.46;100295.56;30733801;28;96743;-63
2023/04/07 22:14:23;;;;;;;10.10;6.68;;;;;;;4.77;77.39;100299.75;30732915;28;101054;-63
2023/04/07 22:29:23;;;;;;;9.57;6.65;;;;;;;4.83;77.63;100302.72;30731733;28;96714;-63
2023/04/07 22:44:24;;;;;;;9.18;5.93;;;;;;;4.95;77.70;100297.34;30731019;28;97299;-63
2023/04/07 22:59:24;;;;;;;9.32;5.72;;;;;;;4.96;77.45;100307.78;30727276;28;97145;-64
2023/04/07 23:14:25;;;;;;;7.63;5.90;;;;;;;4.99;77.26;100336.56;30740760;28;103398;-64
2023/04/07 23:29:26;;;;;;;10.48;6.20;;;;;;;4.89;77.48;100335.66;30748535;28;96617;-65
2023/04/07 23:44:26;;;;;;;13.18;8.02;;;;;;;4.99;78.12;100331.28;30747464;28;96897;-64
2023/04/07 23:59:26;;;;;;;12.75;8.52;;;;;;;5.06;78.16;100337.72;30744772;28;106365;-65
